Time;durP1;ratioP1;P1;durP2;ratioP2;P2;SDS_P1;SDS_P2;PMS_P1;PMS_P2;Temp;Humidity;BMP_temperature;BMP_pressure;BME280_temperature;BME280_humidity;BME280_pressure;Samples;Min_cycle;Max_cycle;Signal;HPM_P1;HPM_P2
2023/12/18 00:01:30;;;;;;;10.30;6.30;;;17.80;63.60;;;;;;5048047;28;20493;-74
2023/12/18 00:04:02;;;;;;;8.83;4.83;;;17.80;63.70;;;;;;5053260;28;20438;-75
2023/12/18 00:06:30;;;;;;;11.17;5.70;;;17.80;63.80;;;;;;5047241;28;20426;-75
2023/12/18 00:08:58;;;;;;;9.93;5.20;;;17.70;63.60;;;;;;5047353;28;20462;-75
2023/12/18 00:11:27;;;;;;;7.73;5.60;;;17.70;64.40;;;;;;5048869;28;20437;-75
2023/12/18 00:13:55;;;;;;;6.90;5.27;;;17.80;63.70;;;;;;5044431;28;20461;-75
2023/12/18 00:16:23;;;;;;;7.50;4.97;;;17.80;63.80;;;;;;5039824;28;20509;-75
2023/12/18 00:18:51;;;;;;;10.23;5.03;;;17.80;63.80;;;;;;5043542;28;20937;-75
2023/12/18 00:21:19;;;;;;;9.97;5.60;;;17.80;63.70;;;;;;5045837;28;20436;-75
2023/12/18 00:23:47;;;;;;;7.30;5.37;;;17.80;63.80;;;;;;5056935;28;20449;-75
2023/12/18 00:26:15;;;;;;;8.50;5.30;;;17.80;63.70;;;;;;5046817;28;20498;-75
2023/12/18 00:28:44;;;;;;;9.70;5.87;;;17.70;63.70;;;;;;5047213;28;20542;-74
2023/12/18 00:31:11;;;;;;;9.33;5.00;;;17.80;63.90;;;;;;5051040;28;20529;-75
2023/12/18 00:33:39;;;;;;;12.90;6.70;;;17.80;63.90;;;;;;5042625;28;20434;-75
2023/12/18 00:36:08;;;;;;;15.03;6.00;;;17.80;63.90;;;;;;5050767;28;20469;-75
2023/12/18 00:38:36;;;;;;;8.80;4.87;;;17.80;63.90;;;;;;5051737;28;20454;-75
2023/12/18 00:41:04;;;;;;;9.53;5.70;;;17.70;63.60;;;;;;5048435;28;20541;-75
2023/12/18 00:43:33;;;;;;;14.50;5.97;;;17.80;63.80;;;;;;5044415;28;20432;-75
2023/12/18 00:46:03;;;;;;;10.33;6.07;;;17.70;63.80;;;;;;5050771;28;20529;-75
2023/12/18 00:48:31;;;;;;;8.37;4.83;;;17.80;63.90;;;;;;5051619;28;20538;-75
2023/12/18 00:50:59;;;;;;;8.07;5.40;;;17.80;64.00;;;;;;5051438;28;20441;-75
2023/12/18 00:53:27;;;;;;;8.20;5.20;;;17.80;63.80;;;;;;5049392;28;20443;-76
2023/12/18 00:55:55;;;;;;;9.07;5.80;;;17.80;64.00;;;;;;5046954;28;20523;-75
2023/12/18 00:58:23;;;;;;;7.60;5.17;;;17.70;63.90;;;;;;5053819;28;20451;-75
2023/12/18 01:00:51;;;;;;;13.00;5.97;;;17.70;64.00;;;;;;5051330;28;20438;-75
2023/12/18 01:03:22;;;;;;;10.67;5.70;;;17.80;64.00;;;;;;5050771;28;20473;-75
2023/12/18 01:05:49;;;;;;;9.70;5.57;;;17.70;64.00;;;;;;5052696;28;20511;-75
2023/12/18 01:08:17;;;;;;;10.73;5.97;;;17.70;64.00;;;;;;5050451;28;20492;-75
2023/12/18 01:10:45;;;;;;;7.83;5.03;;;17.70;63.60;;;;;;5052506;28;20450;-75
2023/12/18 01:13:13;;;;;;;7.80;5.03;;;17.70;63.80;;;;;;5052912;28;20489;-75
2023/12/18 01:15:41;;;;;;;15.13;6.00;;;17.70;64.00;;;;;;5051931;28;20584;-75
2023/12/18 01:18:09;;;;;;;8.10;5.00;;;17.70;64.00;;;;;;5051826;28;20446;-74
2023/12/18 01:20:39;;;;;;;9.80;5.57;;;17.70;63.90;;;;;;5052344;28;20441;-74
2023/12/18 01:23:07;;;;;;;13.03;5.50;;;17.80;64.00;;;;;;5051958;28;20435;-75
2023/12/18 01:25:35;;;;;;;10.77;5.40;;;17.70;64.00;;;;;;5034363;28;20451;-74
2023/12/18 01:28:03;;;;;;;7.47;5.40;;;17.70;63.90;;;;;;5031663;28;20513;-74
2023/12/18 01:30:33;;;;;;;7.30;5.13;;;17.70;63.70;;;;;;5031671;28;20482;-75
2023/12/18 01:33:01;;;;;;;9.50;5.40;;;17.70;63.90;;;;;;5032887;28;20479;-76
2023/12/18 01:35:29;;;;;;;9.20;5.53;;;17.70;64.00;;;;;;5032087;28;20479;-75
2023/12/18 01:38:00;;;;;;;11.00;5.53;;;17.70;64.20;;;;;;5031933;28;20535;-75
2023/12/18 01:40:28;;;;;;;10.83;5.63;;;17.70;64.10;;;;;;5032188;28;20478;-75
2023/12/18 01:42:56;;;;;;;6.70;5.00;;;17.70;64.10;;;;;;5032235;28;20447;-75
2023/12/18 01:45:25;;;;;;;7.57;5.33;;;17.70;64.10;;;;;;5031751;28;20539;-75
2023/12/18 01:47:53;;;;;;;7.30;5.30;;;17.70;64.20;;;;;;5047848;28;20442;-75
2023/12/18 01:50:21;;;;;;;9.20;5.47;;;17.70;64.10;;;;;;5052541;28;20507;-74
2023/12/18 01:52:48;;;;;;;9.80;5.50;;;17.70;64.00;;;;;;5052129;28;20438;-75
2023/12/18 01:55:18;;;;;;;10.13;5.33;;;17.70;64.20;;;;;;5047193;28;20973;-75
2023/12/18 01:57:45;;;;;;;7.43;5.37;;;17.70;64.30;;;;;;5051749;28;20462;-74
2023/12/18 02:00:14;;;;;;;12.70;6.00;;;17.70;64.30;;;;;;5051717;28;20449;-75
2023/12/18 02:02:41;;;;;;;7.40;5.20;;;17.70;64.40;;;;;;5051318;28;20435;-74
2023/12/18 02:05:09;;;;;;;9.73;4.97;;;17.70;64.20;;;;;;5031964;28;20460;-74
2023/12/18 02:07:38;;;;;;;12.33;5.30;;;17.60;64.20;;;;;;5031331;28;21006;-74
2023/12/18 02:10:07;;;;;;;9.07;5.03;;;17.60;64.30;;;;;;5038314;28;20442;-74
2023/12/18 02:12:36;;;;;;;7.70;5.33;;;17.60;64.20;;;;;;5051686;28;20521;-75
2023/12/18 02:15:05;;;;;;;8.50;5.23;;;17.60;64.20;;;;;;5053043;28;20465;-75
2023/12/18 02:17:32;;;;;;;9.63;5.43;;;17.60;64.20;;;;;;5055190;28;20569;-75
2023/12/18 02:20:10;;;;;;;9.40;5.53;;;17.70;64.00;;;;;;5044875;28;20448;-75
2023/12/18 02:22:50;;;;;;;6.17;5.10;;;17.60;64.20;;;;;;5035584;28;20458;-75
2023/12/18 02:25:18;;;;;;;11.77;6.60;;;17.60;64.30;;;;;;5035656;28;20519;-75
2023/12/18 02:27:46;;;;;;;10.30;5.50;;;17.60;64.30;;;;;;5035005;28;20471;-74
2023/12/18 02:30:14;;;;;;;8.97;5.73;;;17.60;64.00;;;;;;5035471;28;20442;-75
2023/12/18 02:32:43;;;;;;;7.03;5.33;;;17.60;64.00;;;;;;5039760;28;20451;-75
2023/12/18 02:35:10;;;;;;;10.33;5.57;;;17.60;64.10;;;;;;5039764;28;20582;-75
2023/12/18 02:37:38;;;;;;;9.40;5.90;;;17.60;64.20;;;;;;5046140;28;20462;-75
2023/12/18 02:40:08;;;;;;;10.00;5.73;;;17.60;64.00;;;;;;5056276;28;20441;-75
2023/12/18 02:42:36;;;;;;;10.90;5.97;;;17.60;64.20;;;;;;5055765;28;20493;-75
2023/12/18 02:45:05;;;;;;;9.27;5.43;;;17.60;64.00;;;;;;5055600;28;20472;-74
2023/12/18 02:47:33;;;;;;;12.53;5.63;;;17.60;64.00;;;;;;5054939;28;20421;-75
2023/12/18 02:50:02;;;;;;;12.33;5.73;;;17.60;64.00;;;;;;5055175;28;20444;-75
2023/12/18 02:52:29;;;;;;;9.60;5.90;;;17.60;64.60;;;;;;5054641;28;20439;-75
2023/12/18 02:54:57;;;;;;;9.47;5.77;;;17.60;64.10;;;;;;5054798;28;20549;-75
2023/12/18 02:57:26;;;;;;;8.23;5.67;;;17.60;64.10;;;;;;5054690;28;20565;-75
2023/12/18 02:59:54;;;;;;;12.10;6.23;;;17.60;64.20;;;;;;5055124;28;20450;-75
2023/12/18 03:02:22;;;;;;;9.03;5.90;;;17.60;64.20;;;;;;5056654;28;20439;-76
2023/12/18 03:04:50;;;;;;;9.43;5.90;;;17.60;64.20;;;;;;5054824;28;20992;-75
2023/12/18 03:07:18;;;;;;;13.53;6.63;;;17.60;64.30;;;;;;5054588;28;20446;-76
2023/12/18 03:09:46;;;;;;;11.33;7.10;;;17.60;64.20;;;;;;5054269;28;20488;-76
2023/12/18 03:12:14;;;;;;;10.10;6.30;;;17.60;64.40;;;;;;5054033;28;20438;-76
2023/12/18 03:14:43;;;;;;;10.47;6.57;;;17.60;64.50;;;;;;5054525;28;20469;-76
2023/12/18 03:17:12;;;;;;;12.13;6.40;;;17.60;64.20;;;;;;5054581;28;20482;-76
2023/12/18 03:19:40;;;;;;;10.67;7.23;;;17.60;64.40;;;;;;5054655;28;20498;-76
2023/12/18 03:22:08;;;;;;;17.13;7.47;;;17.60;64.30;;;;;;5054859;28;20530;-75
2023/12/18 03:24:36;;;;;;;13.07;7.63;;;17.60;64.50;;;;;;5054745;28;20493;-75
2023/12/18 03:27:04;;;;;;;14.30;6.90;;;17.60;64.50;;;;;;5051840;28;20466;-76
2023/12/18 03:29:32;;;;;;;10.07;7.43;;;17.60;64.30;;;;;;5054334;28;20493;-76
2023/12/18 03:32:03;;;;;;;12.57;7.23;;;17.60;64.40;;;;;;5054381;28;20545;-76
2023/12/18 03:34:31;;;;;;;12.27;7.30;;;17.60;64.20;;;;;;5054170;28;20529;-76
2023/12/18 03:37:00;;;;;;;12.50;7.67;;;17.60;65.10;;;;;;5053990;28;20478;-76
2023/12/18 03:39:28;;;;;;;9.73;6.83;;;17.60;64.40;;;;;;5054510;28;20519;-75
2023/12/18 03:41:57;;;;;;;13.50;7.60;;;17.60;64.30;;;;;;5061041;28;20438;-74
2023/12/18 03:44:27;;;;;;;12.90;6.93;;;17.60;64.30;;;;;;5063801;28;20544;-74
2023/12/18 03:46:57;;;;;;;15.00;9.13;;;17.50;64.60;;;;;;5063430;28;20465;-75
2023/12/18 03:49:26;;;;;;;11.27;7.23;;;17.60;64.40;;;;;;5054234;28;20449;-75
2023/12/18 03:51:54;;;;;;;14.00;7.93;;;17.60;64.40;;;;;;5054309;28;20431;-74
2023/12/18 03:54:22;;;;;;;10.83;7.03;;;17.60;64.60;;;;;;5053879;28;20502;-74
2023/12/18 03:56:50;;;;;;;15.77;8.37;;;17.60;64.30;;;;;;5053578;28;20465;-74
2023/12/18 03:59:18;;;;;;;12.53;8.00;;;17.60;64.20;;;;;;5054486;28;20485;-75
2023/12/18 04:01:46;;;;;;;13.57;7.50;;;17.50;64.50;;;;;;5046266;28;20502;-75
2023/12/18 04:04:14;;;;;;;12.50;7.73;;;17.50;64.50;;;;;;5063307;28;20524;-74
2023/12/18 04:06:44;;;;;;;15.73;7.60;;;17.60;64.70;;;;;;5053683;28;20435;-75
2023/12/18 04:09:12;;;;;;;10.83;7.40;;;17.60;64.50;;;;;;5052802;28;20438;-75
2023/12/18 04:11:40;;;;;;;10.53;7.40;;;17.60;64.50;;;;;;5053063;28;20438;-74
2023/12/18 04:14:08;;;;;;;15.63;8.30;;;17.50;64.20;;;;;;5053252;28;20474;-75
2023/12/18 04:16:36;;;;;;;10.30;7.40;;;17.50;64.50;;;;;;5052679;28;20538;-74
2023/12/18 04:19:05;;;;;;;8.87;6.93;;;17.50;64.50;;;;;;5062717;28;20526;-75
2023/12/18 04:21:33;;;;;;;10.23;7.53;;;17.50;64.60;;;;;;5071859;28;20450;-75
2023/12/18 04:24:03;;;;;;;12.37;7.57;;;17.50;64.30;;;;;;5055140;28;20457;-75
2023/12/18 04:26:32;;;;;;;13.57;8.40;;;17.50;64.60;;;;;;5056734;28;20454;-74
2023/12/18 04:29:00;;;;;;;13.57;8.40;;;17.50;64.40;;;;;;5058483;28;20453;-75
2023/12/18 04:31:28;;;;;;;13.03;8.33;;;17.50;64.40;;;;;;5049418;28;20446;-75
2023/12/18 04:33:56;;;;;;;13.37;8.43;;;17.50;64.30;;;;;;5066685;28;20476;-74
2023/12/18 04:36:24;;;;;;;12.63;8.30;;;17.50;64.40;;;;;;5061415;28;20884;-73
2023/12/18 04:38:52;;;;;;;13.80;8.43;;;17.50;64.30;;;;;;5060108;28;20476;-73
2023/12/18 04:41:22;;;;;;;11.07;6.87;;;17.50;64.50;;;;;;5060434;28;20438;-74
2023/12/18 04:43:50;;;;;;;15.90;7.93;;;17.50;64.20;;;;;;5033060;28;20436;-73
2023/12/18 04:46:18;;;;;;;15.90;7.80;;;17.50;64.20;;;;;;5034420;28;20459;-74
2023/12/18 04:48:46;;;;;;;12.43;7.20;;;17.50;64.50;;;;;;5040358;28;20862;-75
2023/12/18 04:51:14;;;;;;;12.30;7.77;;;17.50;64.30;;;;;;5054280;28;20952;-73
2023/12/18 04:53:41;;;;;;;11.30;7.30;;;17.50;64.40;;;;;;5053657;28;20439;-73
2023/12/18 04:56:09;;;;;;;12.47;7.70;;;17.50;64.40;;;;;;5035837;28;20474;-74
2023/12/18 04:58:39;;;;;;;13.10;7.60;;;17.50;64.40;;;;;;5044299;28;20467;-75
2023/12/18 05:01:08;;;;;;;9.53;7.17;;;17.50;64.30;;;;;;5051619;28;20447;-75
2023/12/18 05:03:36;;;;;;;11.63;7.40;;;17.50;64.50;;;;;;5072937;28;20442;-74
2023/12/18 05:06:18;;;;;;;11.43;7.10;;;17.50;64.60;;;;;;5063497;28;20835;-74
2023/12/18 05:08:46;;;;;;;14.27;7.83;;;17.50;64.40;;;;;;5051779;28;20442;-75
2023/12/18 05:11:16;;;;;;;10.20;7.17;;;17.50;64.40;;;;;;5052162;28;20466;-74
2023/12/18 05:13:44;;;;;;;12.83;7.30;;;17.40;64.40;;;;;;5052373;28;20504;-75
2023/12/18 05:16:13;;;;;;;12.47;7.40;;;17.50;64.60;;;;;;5046307;28;20470;-74
2023/12/18 05:18:41;;;;;;;12.03;7.00;;;17.40;64.30;;;;;;5036922;28;20475;-74
2023/12/18 05:21:10;;;;;;;11.23;7.70;;;17.40;64.60;;;;;;5049657;28;20449;-74
2023/12/18 05:23:39;;;;;;;15.33;7.43;;;17.40;64.20;;;;;;5068879;28;20441;-75
2023/12/18 05:26:07;;;;;;;10.10;6.90;;;17.40;64.60;;;;;;5061070;28;20541;-75
2023/12/18 05:28:35;;;;;;;14.43;6.93;;;17.40;64.50;;;;;;5071849;28;20438;-75
2023/12/18 05:31:04;;;;;;;7.80;6.10;;;17.40;64.70;;;;;;5037322;28;20506;-76
2023/12/18 05:33:33;;;;;;;9.80;6.70;;;17.50;64.60;;;;;;5063814;28;20477;-75
2023/12/18 05:36:01;;;;;;;10.13;6.73;;;17.50;64.40;;;;;;5061942;28;20463;-75
2023/12/18 05:38:29;;;;;;;13.67;7.43;;;17.40;64.60;;;;;;5051903;28;20497;-75
2023/12/18 05:40:57;;;;;;;10.70;7.60;;;17.40;64.80;;;;;;5067541;28;20445;-76
2023/12/18 05:43:25;;;;;;;12.47;6.80;;;17.40;64.80;;;;;;5068918;28;20433;-75
2023/12/18 05:45:53;;;;;;;13.60;7.40;;;17.40;64.80;;;;;;5063572;28;20494;-75
2023/12/18 05:48:22;;;;;;;10.80;6.70;;;17.40;64.70;;;;;;5065597;28;20466;-75
2023/12/18 05:50:50;;;;;;;11.17;6.30;;;17.40;64.70;;;;;;5055032;28;20488;-75
2023/12/18 05:53:19;;;;;;;9.23;6.70;;;17.50;65.00;;;;;;5057821;28;20462;-75
2023/12/18 05:55:46;;;;;;;10.57;6.60;;;17.50;64.90;;;;;;5047844;28;20474;-75
2023/12/18 05:58:14;;;;;;;9.63;6.77;;;17.50;64.80;;;;;;5069622;28;20477;-75
2023/12/18 06:00:42;;;;;;;10.20;6.73;;;17.40;64.60;;;;;;5057769;28;20534;-75
2023/12/18 06:03:10;;;;;;;10.27;6.47;;;17.50;64.90;;;;;;5051977;28;20454;-76
2023/12/18 06:05:40;;;;;;;9.87;6.17;;;17.50;64.80;;;;;;5051695;28;20469;-75
2023/12/18 06:08:08;;;;;;;7.53;5.90;;;17.50;64.80;;;;;;5051264;28;20441;-75
2023/12/18 06:10:36;;;;;;;9.67;6.53;;;17.40;64.70;;;;;;5059549;28;20862;-76
2023/12/18 06:13:04;;;;;;;12.80;6.67;;;17.50;65.10;;;;;;5053149;28;20521;-75
2023/12/18 06:15:32;;;;;;;10.93;7.10;;;17.50;64.80;;;;;;5043298;28;20493;-76
2023/12/18 06:18:00;;;;;;;9.60;6.73;;;17.40;64.60;;;;;;5043812;28;20480;-76
2023/12/18 06:20:28;;;;;;;9.33;6.73;;;17.40;65.60;;;;;;5045777;28;20500;-76
2023/12/18 06:22:57;;;;;;;8.67;6.70;;;17.40;64.80;;;;;;5048889;28;21073;-75
2023/12/18 06:25:25;;;;;;;12.33;7.17;;;17.40;64.90;;;;;;5048723;28;20513;-76
2023/12/18 06:27:53;;;;;;;15.43;7.40;;;17.40;64.80;;;;;;5059559;28;20545;-76
2023/12/18 06:30:22;;;;;;;10.80;6.70;;;17.40;64.70;;;;;;5051728;28;20457;-75
2023/12/18 06:32:50;;;;;;;12.77;6.57;;;17.40;65.00;;;;;;5058783;28;20533;-76
2023/12/18 06:35:18;;;;;;;11.63;6.60;;;17.40;64.70;;;;;;5054729;28;20463;-75
2023/12/18 06:37:46;;;;;;;8.87;6.73;;;17.40;64.70;;;;;;5050623;28;20485;-75
2023/12/18 06:40:15;;;;;;;9.57;6.90;;;17.40;64.80;;;;;;5052443;28;20549;-75
2023/12/18 06:42:44;;;;;;;10.30;7.20;;;17.40;64.50;;;;;;5055131;28;20450;-75
2023/12/18 06:45:12;;;;;;;9.20;6.23;;;17.50;64.60;;;;;;5051083;28;20465;-74
2023/12/18 06:47:40;;;;;;;11.70;6.70;;;17.40;64.40;;;;;;5055360;28;20446;-74
2023/12/18 06:50:09;;;;;;;16.53;7.37;;;17.40;64.60;;;;;;5062092;28;20446;-74
2023/12/18 06:52:37;;;;;;;8.60;6.37;;;17.40;64.60;;;;;;5048300;28;20474;-74
2023/12/18 06:55:06;;;;;;;9.70;6.10;;;17.40;64.70;;;;;;5032084;28;20471;-75
2023/12/18 06:57:36;;;;;;;9.27;7.27;;;17.40;64.60;;;;;;5045447;28;20530;-75
2023/12/18 07:00:05;;;;;;;9.17;6.17;;;17.40;64.50;;;;;;5064353;28;20469;-75
2023/12/18 07:02:35;;;;;;;12.03;6.93;;;17.50;64.80;;;;;;5074863;28;20503;-75
2023/12/18 07:05:03;;;;;;;12.47;6.50;;;17.40;64.70;;;;;;5064931;28;20553;-75
2023/12/18 07:07:32;;;;;;;13.10;6.27;;;17.50;64.80;;;;;;5060888;28;20456;-74
2023/12/18 07:09:59;;;;;;;11.30;5.97;;;17.40;64.60;;;;;;5063811;28;20538;-76
2023/12/18 07:12:28;;;;;;;12.40;6.40;;;17.40;64.70;;;;;;5056632;28;20438;-75
2023/12/18 07:14:57;;;;;;;8.50;6.17;;;17.50;64.90;;;;;;5055474;28;20466;-75
2023/12/18 07:17:25;;;;;;;7.90;5.90;;;17.50;64.60;;;;;;5055039;28;20906;-76
2023/12/18 07:19:54;;;;;;;6.93;5.90;;;17.50;64.80;;;;;;5054991;28;20541;-75
2023/12/18 07:22:21;;;;;;;8.10;6.17;;;17.50;64.60;;;;;;5050480;28;20522;-75
2023/12/18 07:24:50;;;;;;;9.90;6.17;;;17.50;64.80;;;;;;5052390;28;20512;-74
2023/12/18 07:27:17;;;;;;;10.67;5.83;;;17.50;64.80;;;;;;5051798;28;20431;-74
2023/12/18 07:29:46;;;;;;;7.67;5.43;;;17.50;64.80;;;;;;5054540;28;20438;-75
2023/12/18 07:32:15;;;;;;;7.47;5.90;;;17.50;64.80;;;;;;5037440;28;20486;-75
2023/12/18 07:34:43;;;;;;;7.03;6.07;;;17.50;64.90;;;;;;5035715;28;20486;-75
2023/12/18 07:37:13;;;;;;;13.87;6.70;;;17.50;64.80;;;;;;5034583;28;20458;-75
2023/12/18 07:39:41;;;;;;;13.00;6.27;;;17.50;64.70;;;;;;5034391;28;20495;-75
2023/12/18 07:42:10;;;;;;;8.37;6.03;;;17.50;64.80;;;;;;5034735;28;20455;-75
2023/12/18 07:44:38;;;;;;;9.20;5.60;;;17.50;64.50;;;;;;5039539;28;20473;-75
2023/12/18 07:47:07;;;;;;;9.90;6.37;;;17.50;64.70;;;;;;5039963;28;20443;-75
2023/12/18 07:49:37;;;;;;;10.13;6.27;;;17.50;64.70;;;;;;5034621;28;20535;-75
2023/12/18 07:52:05;;;;;;;12.23;5.97;;;17.50;64.50;;;;;;5034566;28;20450;-74
2023/12/18 07:54:33;;;;;;;10.10;5.97;;;17.50;64.60;;;;;;5034108;28;20537;-75
2023/12/18 07:57:02;;;;;;;9.30;5.77;;;17.50;64.70;;;;;;5045017;28;20450;-75
2023/12/18 07:59:30;;;;;;;13.27;6.67;;;17.50;64.60;;;;;;5053917;28;20554;-75
2023/12/18 08:01:59;;;;;;;9.07;5.93;;;17.50;64.60;;;;;;5059762;28;20544;-75
2023/12/18 08:04:27;;;;;;;13.73;6.23;;;17.50;64.40;;;;;;5037991;28;20463;-76
2023/12/18 08:06:56;;;;;;;7.90;5.80;;;17.50;64.70;;;;;;5035891;28;20526;-75
2023/12/18 08:09:26;;;;;;;9.47;6.10;;;17.50;64.60;;;;;;5043566;28;20471;-75
2023/12/18 08:11:54;;;;;;;8.40;5.90;;;17.60;64.70;;;;;;5053220;28;20457;-75
2023/12/18 08:14:23;;;;;;;9.40;6.53;;;17.50;64.60;;;;;;5053153;28;20506;-75
2023/12/18 08:16:51;;;;;;;9.37;6.23;;;17.60;64.80;;;;;;5056566;28;20443;-75
2023/12/18 08:19:19;;;;;;;10.20;5.83;;;17.60;64.70;;;;;;5053754;28;20466;-75
2023/12/18 08:21:47;;;;;;;11.60;6.33;;;17.60;64.60;;;;;;5050102;28;20478;-75
2023/12/18 08:24:17;;;;;;;10.30;5.83;;;17.60;64.60;;;;;;5058558;28;20447;-75
2023/12/18 08:26:47;;;;;;;9.57;5.80;;;17.50;64.40;;;;;;5041978;28;20440;-76
2023/12/18 08:29:15;;;;;;;9.13;5.70;;;17.60;64.90;;;;;;5062670;28;21000;-75
2023/12/18 08:31:43;;;;;;;7.50;6.07;;;17.50;64.50;;;;;;5047228;28;20496;-75
2023/12/18 08:34:12;;;;;;;14.03;6.37;;;17.60;64.70;;;;;;5053573;28;20446;-75
2023/12/18 08:36:40;;;;;;;11.53;5.97;;;17.60;64.60;;;;;;5055559;28;20469;-75
2023/12/18 08:39:08;;;;;;;10.17;6.67;;;17.60;64.50;;;;;;5059604;28;20469;-76
2023/12/18 08:41:41;;;;;;;9.83;5.53;;;17.60;64.50;;;;;;5054086;28;20450;-75
2023/12/18 08:44:10;;;;;;;8.93;5.63;;;17.60;64.50;;;;;;5053541;28;20451;-75
2023/12/18 08:46:37;;;;;;;10.93;6.87;;;17.60;64.60;;;;;;5064407;28;20514;-75
2023/12/18 08:49:05;;;;;;;17.33;6.47;;;17.60;64.60;;;;;;5066322;28;20449;-75
2023/12/18 08:51:33;;;;;;;12.50;6.27;;;17.60;64.60;;;;;;5051732;28;20459;-75
2023/12/18 08:54:04;;;;;;;10.20;6.20;;;17.60;64.40;;;;;;5048765;28;20439;-76
2023/12/18 08:56:32;;;;;;;7.07;5.50;;;17.60;64.50;;;;;;5054859;28;20431;-75
2023/12/18 08:59:02;;;;;;;10.43;6.60;;;17.60;64.70;;;;;;5065372;28;20461;-75
2023/12/18 09:01:30;;;;;;;8.23;6.00;;;17.60;64.60;;;;;;5058358;28;20458;-75
2023/12/18 09:03:58;;;;;;;7.20;5.40;;;17.60;64.60;;;;;;5060808;28;20488;-75
2023/12/18 09:06:26;;;;;;;10.97;5.93;;;17.60;64.30;;;;;;5061526;28;20538;-74
2023/12/18 09:08:54;;;;;;;9.10;5.83;;;17.60;64.60;;;;;;5053416;28;20438;-74
2023/12/18 09:11:22;;;;;;;7.83;5.80;;;17.60;64.30;;;;;;5052937;28;20463;-74
2023/12/18 09:13:51;;;;;;;9.30;6.30;;;17.60;64.50;;;;;;5056947;28;20499;-74
2023/12/18 09:16:20;;;;;;;9.47;6.40;;;17.60;64.50;;;;;;5053644;28;20458;-74
2023/12/18 09:18:48;;;;;;;10.17;5.50;;;17.60;64.60;;;;;;5036035;28;20525;-74
2023/12/18 09:21:16;;;;;;;14.03;6.03;;;17.60;64.40;;;;;;5054318;28;20474;-74
2023/12/18 09:23:45;;;;;;;10.67;5.50;;;17.60;64.60;;;;;;5053363;28;20447;-74
2023/12/18 09:26:13;;;;;;;10.70;6.47;;;17.70;65.20;;;;;;5059712;28;20469;-75
2023/12/18 09:28:41;;;;;;;10.50;5.27;;;17.70;64.60;;;;;;5034008;28;20443;-75
2023/12/18 09:31:09;;;;;;;7.30;5.80;;;17.70;64.50;;;;;;5055714;28;20442;-75
2023/12/18 09:33:39;;;;;;;7.37;5.90;;;17.70;64.50;;;;;;5054928;28;20504;-75
2023/12/18 09:36:08;;;;;;;9.10;6.17;;;17.70;64.60;;;;;;5051313;28;20486;-74
2023/12/18 09:38:36;;;;;;;9.47;5.90;;;17.70;64.50;;;;;;5051158;28;20477;-75
2023/12/18 09:41:04;;;;;;;10.00;5.93;;;17.70;64.50;;;;;;5045169;28;20535;-75
2023/12/18 09:43:32;;;;;;;8.80;5.70;;;17.70;64.60;;;;;;5038449;28;20533;-75
2023/12/18 09:46:00;;;;;;;11.93;6.67;;;17.70;64.60;;;;;;5039728;28;20495;-75
2023/12/18 09:48:28;;;;;;;14.73;6.53;;;17.70;64.10;;;;;;5048830;28;20443;-75
2023/12/18 09:50:59;;;;;;;7.00;5.60;;;17.70;64.60;;;;;;5038482;28;20455;-75
2023/12/18 09:53:27;;;;;;;7.33;5.73;;;17.70;64.50;;;;;;5048629;28;20431;-75
2023/12/18 09:55:55;;;;;;;11.13;6.47;;;17.70;64.40;;;;;;5048373;28;20480;-76
2023/12/18 09:58:25;;;;;;;9.50;5.37;;;17.70;64.40;;;;;;5048065;28;20434;-75
2023/12/18 10:00:53;;;;;;;13.70;6.73;;;17.70;64.60;;;;;;5047522;28;20518;-74
2023/12/18 10:03:21;;;;;;;9.00;6.20;;;17.70;64.30;;;;;;5037230;28;20457;-74
2023/12/18 10:05:49;;;;;;;8.77;5.47;;;17.70;64.60;;;;;;5050834;28;20486;-75
2023/12/18 10:08:19;;;;;;;11.53;5.83;;;17.70;64.40;;;;;;5050216;28;20458;-74
2023/12/18 10:10:47;;;;;;;8.90;5.80;;;17.70;64.40;;;;;;5053961;28;20488;-76
2023/12/18 10:13:15;;;;;;;9.30;6.13;;;17.80;64.60;;;;;;5049190;28;20532;-75
2023/12/18 10:15:43;;;;;;;8.10;5.80;;;17.70;64.50;;;;;;5051062;28;20494;-75
2023/12/18 10:18:11;;;;;;;9.87;6.10;;;17.70;64.40;;;;;;5041990;28;20449;-74
2023/12/18 10:20:42;;;;;;;7.50;5.70;;;17.80;64.60;;;;;;5045408;28;20471;-74
2023/12/18 10:23:13;;;;;;;12.43;5.70;;;17.80;64.50;;;;;;5045629;28;20450;-74
2023/12/18 10:25:42;;;;;;;11.33;6.37;;;17.80;64.40;;;;;;5051300;28;20489;-76
2023/12/18 10:28:09;;;;;;;13.13;5.93;;;17.80;64.50;;;;;;5051057;28;20462;-75
2023/12/18 10:30:37;;;;;;;11.23;6.80;;;17.80;64.10;;;;;;5051477;28;20427;-75
2023/12/18 10:33:09;;;;;;;8.53;6.13;;;17.80;64.40;;;;;;5046378;28;20492;-75
2023/12/18 10:35:38;;;;;;;11.10;6.70;;;17.80;64.20;;;;;;5040949;28;20448;-75
2023/12/18 10:38:05;;;;;;;11.93;6.30;;;17.80;64.30;;;;;;5062800;28;20482;-75
2023/12/18 10:40:33;;;;;;;9.20;6.37;;;17.80;64.30;;;;;;5055885;28;20561;-76
2023/12/18 10:43:08;;;;;;;8.73;6.13;;;17.80;64.10;;;;;;5053541;28;20486;-76
2023/12/18 10:45:36;;;;;;;9.30;6.90;;;17.80;64.20;;;;;;5050004;28;20455;-76
2023/12/18 10:48:04;;;;;;;9.70;6.53;;;17.80;64.30;;;;;;5046922;28;20439;-76
2023/12/18 10:50:35;;;;;;;12.40;7.00;;;17.80;64.30;;;;;;5054548;28;20466;-77
2023/12/18 10:53:04;;;;;;;10.03;6.03;;;17.80;64.00;;;;;;5055700;28;20479;-76
2023/12/18 10:55:35;;;;;;;8.97;6.33;;;17.80;64.20;;;;;;5035328;28;20474;-77
2023/12/18 10:58:05;;;;;;;11.37;6.77;;;17.80;64.10;;;;;;5053241;28;20450;-76
2023/12/18 11:00:33;;;;;;;11.50;6.93;;;17.80;64.10;;;;;;5054157;28;20466;-76
2023/12/18 11:03:02;;;;;;;13.33;6.87;;;17.80;64.20;;;;;;5049042;28;20526;-76
2023/12/18 11:05:31;;;;;;;10.60;6.97;;;17.80;64.30;;;;;;5041689;28;20467;-76
2023/12/18 11:07:59;;;;;;;15.93;6.57;;;17.80;64.40;;;;;;5046107;28;20438;-76
2023/12/18 11:10:27;;;;;;;13.00;7.40;;;17.80;64.20;;;;;;5047653;28;20439;-77
2023/12/18 11:13:05;;;;;;;14.87;7.10;;;17.80;64.30;;;;;;5048587;28;20506;-77
2023/12/18 11:15:38;;;;;;;10.23;6.40;;;17.80;64.30;;;;;;5058492;28;20482;-76
2023/12/18 11:18:11;;;;;;;8.80;6.23;;;17.80;64.20;;;;;;5050576;28;20516;-77
2023/12/18 11:20:41;;;;;;;12.83;6.60;;;17.80;64.20;;;;;;5041232;28;20463;-78
2023/12/18 11:23:10;;;;;;;11.73;6.60;;;17.90;64.20;;;;;;5045780;28;20474;-75
2023/12/18 11:25:39;;;;;;;12.87;7.10;;;17.90;64.20;;;;;;5056476;28;20461;-76
2023/12/18 11:28:07;;;;;;;9.90;6.40;;;17.90;64.20;;;;;;5037685;28;20481;-76
2023/12/18 11:30:37;;;;;;;12.37;7.10;;;17.80;64.30;;;;;;5051298;28;20526;-75
2023/12/18 11:33:05;;;;;;;12.70;7.03;;;17.90;64.50;;;;;;5049651;28;20439;-76
2023/12/18 11:35:34;;;;;;;9.60;6.53;;;17.90;64.20;;;;;;5052380;28;20437;-76
2023/12/18 11:38:06;;;;;;;10.73;6.37;;;17.90;64.20;;;;;;5052171;28;20530;-75
2023/12/18 11:40:40;;;;;;;9.37;6.70;;;17.90;64.10;;;;;;5038190;28;20522;-75
2023/12/18 11:43:08;;;;;;;9.90;6.40;;;17.90;64.20;;;;;;5051134;28;20521;-75
2023/12/18 11:45:39;;;;;;;10.10;7.10;;;17.90;64.00;;;;;;5047389;28;20491;-76
2023/12/18 11:48:08;;;;;;;10.83;6.97;;;17.90;64.10;;;;;;5046326;28;20419;-76
2023/12/18 11:50:37;;;;;;;14.37;7.87;;;18.00;64.20;;;;;;5054138;28;20462;-76
2023/12/18 11:53:09;;;;;;;11.20;6.97;;;18.00;64.10;;;;;;5053525;28;20520;-76
2023/12/18 11:55:43;;;;;;;9.43;6.37;;;17.90;64.00;;;;;;5048909;28;20553;-75
2023/12/18 11:58:14;;;;;;;15.13;7.63;;;18.00;64.50;;;;;;5047317;28;20449;-76
2023/12/18 12:00:43;;;;;;;22.83;7.00;;;17.90;64.30;;;;;;5050832;28;20438;-75
2023/12/18 12:03:11;;;;;;;12.40;7.30;;;18.00;64.50;;;;;;5044349;28;20438;-75
2023/12/18 12:05:39;;;;;;;9.63;6.20;;;18.00;64.20;;;;;;5048942;28;20474;-76
2023/12/18 12:08:08;;;;;;;12.40;7.07;;;18.00;64.50;;;;;;5049076;28;20461;-76
2023/12/18 12:10:45;;;;;;;6.90;6.00;;;18.00;64.30;;;;;;5060324;28;20488;-76
2023/12/18 12:13:20;;;;;;;8.47;6.80;;;18.00;64.20;;;;;;5050583;28;20442;-76
2023/12/18 12:15:56;;;;;;;11.83;7.20;;;18.00;64.30;;;;;;5052769;28;20454;-75
2023/12/18 12:18:26;;;;;;;13.80;6.33;;;18.00;64.30;;;;;;5056781;28;20518;-76
2023/12/18 12:20:54;;;;;;;11.63;6.20;;;18.00;64.20;;;;;;5064298;28;20456;-75
2023/12/18 12:23:22;;;;;;;14.90;6.90;;;18.00;64.20;;;;;;5067528;28;20521;-75
2023/12/18 12:25:50;;;;;;;13.73;6.80;;;18.00;64.10;;;;;;5050558;28;20498;-76
2023/12/18 12:28:18;;;;;;;13.40;7.07;;;18.00;64.30;;;;;;5052630;28;20444;-75
2023/12/18 12:30:46;;;;;;;14.43;6.77;;;18.00;64.10;;;;;;5047407;28;20497;-75
2023/12/18 12:33:16;;;;;;;9.93;6.20;;;18.00;64.20;;;;;;5050771;28;20450;-75
2023/12/18 12:35:45;;;;;;;10.80;6.90;;;18.00;64.20;;;;;;5058611;28;20542;-75
2023/12/18 12:38:13;;;;;;;13.10;6.93;;;18.00;64.10;;;;;;5043704;28;20493;-75
2023/12/18 12:40:40;;;;;;;10.27;6.90;;;18.00;64.30;;;;;;5058065;28;20668;-75
2023/12/18 12:43:09;;;;;;;13.50;7.43;;;18.00;64.30;;;;;;5066463;28;20473;-76
2023/12/18 12:45:37;;;;;;;11.00;6.80;;;18.00;64.20;;;;;;5044368;28;20479;-75
2023/12/18 12:48:06;;;;;;;8.47;6.33;;;18.00;64.30;;;;;;5037080;28;20971;-75